createdAt,value
2018-11-04T00:00:23.486Z,0
2018-11-04T00:01:33.344Z,0
2018-11-04T00:02:43.007Z,0
2018-11-04T00:03:52.947Z,0
2018-11-04T00:05:02.618Z,0
2018-11-04T00:06:12.561Z,0
2018-11-04T00:07:22.261Z,0
2018-11-04T00:08:31.953Z,0
2018-11-04T00:09:41.157Z,0
2018-11-04T00:10:51.120Z,0
2018-11-04T00:12:01.077Z,0
2018-11-04T00:13:11.325Z,0
2018-11-04T00:14:21.053Z,0
2018-11-04T00:15:30.501Z,0
2018-11-04T00:16:40.181Z,0
2018-11-04T00:17:49.619Z,0
2018-11-04T00:18:59.567Z,0
2018-11-04T00:20:09.031Z,0
2018-11-04T00:21:18.722Z,0
2018-11-04T00:22:28.653Z,0
2018-11-04T00:23:38.589Z,0
2018-11-04T00:24:48.288Z,0
2018-11-04T00:25:57.997Z,0
2018-11-04T00:27:07.457Z,0
2018-11-04T00:28:17.166Z,0
2018-11-04T00:29:27.108Z,0
2018-11-04T00:30:37.083Z,0
2018-11-04T00:31:47.041Z,0
2018-11-04T00:32:56.473Z,0
2018-11-04T00:34:05.914Z,0
2018-11-04T00:35:15.876Z,0
2018-11-04T00:36:25.837Z,0
2018-11-04T00:37:35.815Z,0
2018-11-04T00:38:45.488Z,0
2018-11-04T00:39:55.376Z,0
2018-11-04T00:41:05.319Z,0
2018-11-04T00:42:15.003Z,0
2018-11-04T00:43:24.957Z,0
2018-11-04T00:44:34.640Z,0
2018-11-04T00:45:44.901Z,0
2018-11-04T00:46:54.339Z,0
2018-11-04T00:48:04.278Z,0
2018-11-04T00:49:14.260Z,0
2018-11-04T00:50:24.224Z,0
2018-11-04T00:51:33.909Z,0
2018-11-04T00:52:43.855Z,0
2018-11-04T00:53:53.801Z,0
2018-11-04T00:55:03.737Z,0
2018-11-04T00:56:13.430Z,0
2018-11-04T00:57:23.109Z,0
2018-11-04T00:58:33.063Z,0
2018-11-04T00:59:42.988Z,0
2018-11-04T01:00:52.690Z,0
2018-11-04T01:02:02.378Z,0
2018-11-04T01:03:12.375Z,0
2018-11-04T01:04:22.320Z,0
2018-11-04T01:05:32.020Z,0
2018-11-04T01:06:41.713Z,0
2018-11-04T01:07:51.680Z,0
2018-11-04T01:09:01.887Z,0
2018-11-04T01:10:11.374Z,0
2018-11-04T01:11:20.803Z,0
2018-11-04T01:12:30.742Z,0
2018-11-04T01:13:40.167Z,0
2018-11-04T01:14:50.131Z,0
2018-11-04T01:15:59.819Z,0
2018-11-04T01:17:08.743Z,0
2018-11-04T01:18:18.691Z,0
2018-11-04T01:19:28.651Z,0
2018-11-04T01:20:38.602Z,0
2018-11-04T01:21:48.561Z,0
2018-11-04T01:22:58.251Z,0
2018-11-04T01:24:07.918Z,0
2018-11-04T01:25:17.618Z,0
2018-11-04T01:26:27.579Z,0
2018-11-04T01:27:37.044Z,0
2018-11-04T01:28:46.735Z,0
2018-11-04T01:29:56.425Z,0
2018-11-04T01:31:06.132Z,0
2018-11-04T01:32:15.823Z,0
2018-11-04T01:33:25.515Z,0
2018-11-04T01:34:35.206Z,0
2018-11-04T01:35:45.158Z,0
2018-11-04T01:36:54.587Z,0
2018-11-04T01:38:03.755Z,0
2018-11-04T01:39:13.455Z,0
2018-11-04T01:40:23.150Z,0
2018-11-04T01:41:33.135Z,0
2018-11-04T01:42:42.837Z,0
2018-11-04T01:43:52.521Z,0
2018-11-04T01:45:02.476Z,0
2018-11-04T01:46:12.438Z,0
2018-11-04T01:47:22.129Z,0
2018-11-04T01:48:31.832Z,0
2018-11-04T01:49:41.010Z,0
2018-11-04T01:50:50.185Z,0
2018-11-04T01:51:59.861Z,0
2018-11-04T01:53:09.808Z,0
2018-11-04T01:54:19.744Z,0
2018-11-04T01:55:29.684Z,0
2018-11-04T01:56:39.635Z,0
2018-11-04T01:57:49.068Z,0
2018-11-04T01:58:58.762Z,0
2018-11-04T02:00:08.762Z,0
2018-11-04T02:01:18.719Z,0
2018-11-04T02:02:28.670Z,0
2018-11-04T02:03:38.358Z,0
2018-11-04T02:04:48.070Z,0
2018-11-04T02:05:57.755Z,0
2018-11-04T02:07:07.443Z,0
2018-11-04T02:08:17.379Z,0
2018-11-04T02:09:26.811Z,0
2018-11-04T02:10:36.245Z,0
2018-11-04T02:11:46.192Z,0
2018-11-04T02:12:55.881Z,0
2018-11-04T02:14:05.540Z,0
2018-11-04T02:15:15.488Z,0
2018-11-04T02:16:25.186Z,0
2018-11-04T02:17:35.141Z,0
2018-11-04T02:18:45.076Z,0
2018-11-04T02:19:54.516Z,0
2018-11-04T02:21:04.466Z,0
2018-11-04T02:22:14.431Z,0
2018-11-04T02:23:24.388Z,0
2018-11-04T02:24:34.337Z,0
2018-11-04T02:25:44.283Z,0
2018-11-04T02:26:53.974Z,0
2018-11-04T02:28:03.927Z,0
2018-11-04T02:29:13.623Z,0
2018-11-04T02:30:23.096Z,0
2018-11-04T02:31:32.812Z,0
2018-11-04T02:32:42.521Z,0
2018-11-04T02:33:52.223Z,0
2018-11-04T02:35:02.177Z,0
2018-11-04T02:36:12.120Z,0
2018-11-04T02:37:21.814Z,0
2018-11-04T02:38:31.753Z,0
2018-11-04T02:39:41.715Z,0
2018-11-04T02:40:51.686Z,0
2018-11-04T02:42:01.376Z,0
2018-11-04T02:43:11.322Z,0
2018-11-04T02:44:21.270Z,0
2018-11-04T02:45:30.700Z,0
2018-11-04T02:46:40.247Z,0
2018-11-04T02:47:49.954Z,0
2018-11-04T02:48:59.389Z,0
2018-11-04T02:50:09.334Z,0
2018-11-04T02:51:19.030Z,0
2018-11-04T02:52:28.724Z,0
2018-11-04T02:53:38.674Z,0
2018-11-04T02:54:48.176Z,0
2018-11-04T02:55:57.884Z,0
2018-11-04T02:57:07.581Z,0
2018-11-04T02:58:17.279Z,0
2018-11-04T02:59:27.233Z,0
2018-11-04T03:00:37.184Z,0
2018-11-04T03:01:46.764Z,0
2018-11-04T03:02:56.463Z,0
2018-11-04T03:04:06.150Z,0
2018-11-04T03:05:15.592Z,0
2018-11-04T03:06:25.530Z,0
2018-11-04T03:07:35.239Z,0
2018-11-04T03:08:45.184Z,0
2018-11-04T03:09:54.887Z,0
2018-11-04T03:11:04.063Z,0
2018-11-04T03:12:13.762Z,0
2018-11-04T03:13:23.711Z,0
2018-11-04T03:14:33.650Z,0
2018-11-04T03:15:43.076Z,0
2018-11-04T03:16:53.028Z,0
2018-11-04T03:18:02.990Z,0
2018-11-04T03:19:12.430Z,0
2018-11-04T03:20:21.858Z,0
2018-11-04T03:21:31.556Z,0
2018-11-04T03:22:41.253Z,0
2018-11-04T03:23:50.938Z,0
2018-11-04T03:25:00.921Z,0
2018-11-04T03:26:10.861Z,0
2018-11-04T03:27:20.540Z,0
2018-11-04T03:28:29.712Z,0
2018-11-04T03:29:39.133Z,0
2018-11-04T03:30:48.849Z,0
2018-11-04T03:31:58.818Z,0
2018-11-04T03:33:08.513Z,0
2018-11-04T03:34:17.945Z,0
2018-11-04T03:35:27.886Z,0
2018-11-04T03:36:37.588Z,0
2018-11-04T03:37:47.287Z,0
2018-11-04T03:38:56.982Z,0
2018-11-04T03:40:06.432Z,0
2018-11-04T03:41:16.375Z,0
2018-11-04T03:42:26.053Z,0
2018-11-04T03:43:35.756Z,0
2018-11-04T03:44:45.720Z,0
2018-11-04T03:45:55.677Z,0
2018-11-04T03:47:05.355Z,0
2018-11-04T03:48:15.304Z,0
2018-11-04T03:49:25.247Z,0
2018-11-04T03:50:34.688Z,0
2018-11-04T03:51:44.644Z,0
2018-11-04T03:52:54.607Z,0
2018-11-04T03:54:04.558Z,0
2018-11-04T03:55:14.511Z,0
2018-11-04T03:56:24.479Z,0
2018-11-04T03:57:34.222Z,0
2018-11-04T03:58:43.408Z,0
2018-11-04T03:59:53.099Z,0
2018-11-04T04:01:02.790Z,0
2018-11-04T04:02:12.226Z,0
2018-11-04T04:03:22.186Z,0
2018-11-04T04:04:32.221Z,0
2018-11-04T04:05:41.646Z,0
2018-11-04T04:06:51.334Z,0
2018-11-04T04:08:01.038Z,0
2018-11-04T04:09:10.746Z,0
2018-11-04T04:10:20.454Z,0
2018-11-04T04:11:30.410Z,0
2018-11-04T04:12:39.837Z,0
2018-11-04T04:13:49.517Z,0
2018-11-04T04:14:58.684Z,0
2018-11-04T04:16:08.369Z,0
2018-11-04T04:17:18.337Z,0
2018-11-04T04:18:28.298Z,0
2018-11-04T04:19:38.255Z,0
2018-11-04T04:20:47.961Z,0
2018-11-04T04:21:57.931Z,0
2018-11-04T04:23:07.367Z,0
2018-11-04T04:24:17.049Z,0
2018-11-04T04:25:26.735Z,0
2018-11-04T04:26:36.416Z,0
2018-11-04T04:27:46.368Z,0
2018-11-04T04:28:56.323Z,0
2018-11-04T04:30:06.026Z,0
2018-11-04T04:31:15.984Z,0
2018-11-04T04:32:25.419Z,0
2018-11-04T04:33:35.368Z,0
2018-11-04T04:34:45.327Z,0
2018-11-04T04:35:54.499Z,0
2018-11-04T04:37:04.460Z,0
2018-11-04T04:38:14.407Z,0
2018-11-04T04:39:23.593Z,0
2018-11-04T04:40:33.028Z,0
2018-11-04T04:41:42.719Z,0
2018-11-04T04:42:52.691Z,0
2018-11-04T04:44:01.868Z,0
2018-11-04T04:45:11.806Z,0
2018-11-04T04:46:21.491Z,0
2018-11-04T04:47:31.501Z,0
2018-11-04T04:48:41.475Z,0
2018-11-04T04:49:51.418Z,0
2018-11-04T04:51:01.356Z,0
2018-11-04T04:52:11.356Z,0
2018-11-04T04:53:20.785Z,0
2018-11-04T04:54:30.734Z,0
2018-11-04T04:55:40.692Z,0
2018-11-04T04:56:50.643Z,0
2018-11-04T04:58:00.579Z,0
2018-11-04T04:59:10.531Z,0
2018-11-04T05:00:20.215Z,0
2018-11-04T05:01:29.909Z,0
2018-11-04T05:02:39.862Z,0
2018-11-04T05:03:49.821Z,0
2018-11-04T05:04:59.509Z,0
2018-11-04T05:06:09.453Z,0
2018-11-04T05:07:18.884Z,0
2018-11-04T05:08:28.835Z,0
2018-11-04T05:09:38.782Z,0
2018-11-04T05:10:48.469Z,0
2018-11-04T05:11:57.652Z,0
2018-11-04T05:13:07.326Z,0
2018-11-04T05:14:17.276Z,0
2018-11-04T05:15:26.710Z,0
2018-11-04T05:16:36.149Z,0
2018-11-04T05:17:46.185Z,0
2018-11-04T05:18:55.878Z,0
2018-11-04T05:20:05.838Z,0
2018-11-04T05:21:15.532Z,0
2018-11-04T05:22:25.473Z,0
2018-11-04T05:23:35.153Z,0
2018-11-04T05:24:44.866Z,0
2018-11-04T05:25:54.572Z,0
2018-11-04T05:27:04.034Z,0
2018-11-04T05:28:13.209Z,0
2018-11-04T05:29:22.631Z,0
2018-11-04T05:30:32.314Z,0
2018-11-04T05:31:42.256Z,0
2018-11-04T05:32:51.956Z,0
2018-11-04T05:34:01.646Z,0
2018-11-04T05:35:11.345Z,0
2018-11-04T05:36:20.763Z,0
2018-11-04T05:37:30.200Z,0
2018-11-04T05:38:40.294Z,0
2018-11-04T05:39:49.467Z,0
2018-11-04T05:40:59.160Z,0
2018-11-04T05:42:09.125Z,0
2018-11-04T05:43:19.077Z,0
2018-11-04T05:44:29.033Z,0
2018-11-04T05:45:38.451Z,0
2018-11-04T05:46:48.408Z,0
2018-11-04T05:47:58.103Z,0
2018-11-04T05:49:07.280Z,0
2018-11-04T05:50:16.975Z,0
2018-11-04T05:51:26.712Z,0
2018-11-04T05:52:36.719Z,0
2018-11-04T05:53:46.659Z,0
2018-11-04T05:54:56.618Z,0
2018-11-04T05:56:06.062Z,0
2018-11-04T05:57:15.755Z,0
2018-11-04T05:58:25.700Z,0
2018-11-04T05:59:35.385Z,0
2018-11-04T06:00:45.074Z,0
2018-11-04T06:01:55.028Z,0
2018-11-04T06:03:04.987Z,0
2018-11-04T06:04:14.424Z,0
2018-11-04T06:05:24.129Z,0
2018-11-04T06:06:33.818Z,0
2018-11-04T06:07:43.751Z,0
2018-11-04T06:08:53.453Z,0
2018-11-04T06:10:03.420Z,0
2018-11-04T06:11:13.085Z,0
2018-11-04T06:12:22.523Z,0
2018-11-04T06:13:32.234Z,0
2018-11-04T06:14:42.187Z,5
2018-11-04T06:15:51.881Z,5
2018-11-04T06:17:01.567Z,5
2018-11-04T06:18:11.522Z,5
2018-11-04T06:19:21.366Z,5
2018-11-04T06:20:31.074Z,5
2018-11-04T06:21:40.787Z,5
2018-11-04T06:22:50.474Z,5
2018-11-04T06:24:00.423Z,5
2018-11-04T06:25:10.377Z,10
2018-11-04T06:26:20.072Z,10
2018-11-04T06:27:29.752Z,10
2018-11-04T06:28:39.699Z,10
2018-11-04T06:29:49.402Z,10
2018-11-04T06:30:59.341Z,10
2018-11-04T06:32:09.285Z,10
2018-11-04T06:33:18.719Z,10
2018-11-04T06:34:28.644Z,15
2018-11-04T06:35:38.363Z,15
2018-11-04T06:36:48.326Z,15
2018-11-04T06:37:58.267Z,15
2018-11-04T06:39:07.703Z,15
2018-11-04T06:40:17.387Z,15
2018-11-04T06:41:26.824Z,20
2018-11-04T06:42:36.259Z,20
2018-11-04T06:43:45.680Z,25
2018-11-04T06:44:55.383Z,25
2018-11-04T06:46:05.081Z,30
2018-11-04T06:47:16.068Z,30
2018-11-04T06:48:25.148Z,35
2018-11-04T06:49:34.867Z,35
2018-11-04T06:50:44.816Z,35
2018-11-04T06:51:54.255Z,40
2018-11-04T06:53:04.197Z,45
2018-11-04T06:54:14.145Z,45
2018-11-04T06:55:24.094Z,45
2018-11-04T06:56:34.047Z,40
2018-11-04T06:57:43.762Z,40
2018-11-04T06:58:53.454Z,40
2018-11-04T07:00:03.936Z,40
2018-11-04T07:01:13.986Z,45
2018-11-04T07:02:23.432Z,40
2018-11-04T07:03:33.502Z,45
2018-11-04T07:04:43.220Z,50
2018-11-04T07:05:52.919Z,55
2018-11-04T07:07:02.620Z,50
2018-11-04T07:08:12.321Z,55
2018-11-04T07:09:21.760Z,55
2018-11-04T07:10:31.458Z,55
2018-11-04T07:11:41.159Z,55
2018-11-04T07:12:50.854Z,60
2018-11-04T07:14:00.544Z,60
2018-11-04T07:15:10.477Z,55
2018-11-04T07:16:19.910Z,60
2018-11-04T07:17:29.605Z,60
2018-11-04T07:18:39.294Z,60
2018-11-04T07:19:49.469Z,60
2018-11-04T07:20:59.212Z,60
2018-11-04T07:22:09.161Z,65
2018-11-04T07:23:18.591Z,65
2018-11-04T07:24:28.036Z,65
2018-11-04T07:25:37.966Z,70
2018-11-04T07:26:47.742Z,75
2018-11-04T07:27:58.236Z,75
2018-11-04T07:29:08.199Z,75
2018-11-04T07:30:18.154Z,75
2018-11-04T07:31:27.322Z,75
2018-11-04T07:32:37.269Z,80
2018-11-04T07:33:46.965Z,80
2018-11-04T07:34:56.657Z,90
2018-11-04T07:36:06.601Z,90
2018-11-04T07:37:16.283Z,95
2018-11-04T07:38:25.718Z,90
2018-11-04T07:39:35.155Z,90
2018-11-04T07:40:44.598Z,90
2018-11-04T07:41:53.780Z,85
2018-11-04T07:43:03.466Z,80
2018-11-04T07:44:13.372Z,85
2018-11-04T07:45:22.827Z,100
2018-11-04T07:46:32.562Z,105
2018-11-04T07:47:42.255Z,110
2018-11-04T07:48:52.218Z,100
2018-11-04T07:50:01.640Z,95
2018-11-04T07:51:11.593Z,100
2018-11-04T07:52:21.287Z,95
2018-11-04T07:53:30.994Z,90
2018-11-04T07:54:41.051Z,90
2018-11-04T07:55:51.022Z,90
2018-11-04T07:57:01.157Z,100
2018-11-04T07:58:11.170Z,105
2018-11-04T07:59:20.864Z,115
2018-11-04T08:00:30.560Z,110
2018-11-04T08:01:40.524Z,115
2018-11-04T08:02:49.967Z,115
2018-11-04T08:04:00.121Z,125
2018-11-04T08:05:09.839Z,135
2018-11-04T08:06:19.786Z,120
2018-11-04T08:07:29.245Z,120
2018-11-04T08:08:39.208Z,115
2018-11-04T08:09:49.229Z,120
2018-11-04T08:10:58.917Z,120
2018-11-04T08:12:08.678Z,125
2018-11-04T08:13:18.663Z,130
2018-11-04T08:14:28.076Z,125
2018-11-04T08:15:37.777Z,140
2018-11-04T08:16:47.518Z,150
2018-11-04T08:17:56.955Z,130
2018-11-04T08:19:06.381Z,100
2018-11-04T08:20:16.355Z,90
2018-11-04T08:21:26.563Z,90
2018-11-04T08:22:36.192Z,90
2018-11-04T08:23:45.646Z,100
2018-11-04T08:24:55.603Z,100
2018-11-04T08:26:04.799Z,100
2018-11-04T08:27:14.483Z,105
2018-11-04T08:28:24.181Z,115
2018-11-04T08:29:33.367Z,120
2018-11-04T08:30:43.348Z,125
2018-11-04T08:31:53.299Z,125
2018-11-04T08:33:03.250Z,130
2018-11-04T08:34:13.200Z,125
2018-11-04T08:35:23.152Z,130
2018-11-04T08:36:32.596Z,125
2018-11-04T08:37:42.033Z,125
2018-11-04T08:38:51.720Z,130
2018-11-04T08:40:02.609Z,135
2018-11-04T08:41:11.877Z,135
2018-11-04T08:42:21.844Z,135
2018-11-04T08:43:31.803Z,125
2018-11-04T08:44:41.228Z,120
2018-11-04T08:45:51.475Z,115
2018-11-04T08:47:01.264Z,120
2018-11-04T08:48:11.239Z,125
2018-11-04T08:49:21.191Z,130
2018-11-04T08:50:31.135Z,125
2018-11-04T08:51:41.099Z,125
2018-11-04T08:52:51.499Z,125
2018-11-04T08:54:01.448Z,135
2018-11-04T08:55:11.418Z,140
2018-11-04T08:56:21.113Z,135
2018-11-04T08:57:30.557Z,145
2018-11-04T08:58:40.491Z,150
2018-11-04T08:59:50.205Z,150
2018-11-04T09:01:00.164Z,150
2018-11-04T09:02:10.117Z,160
2018-11-04T09:03:20.066Z,160
2018-11-04T09:04:29.856Z,165
2018-11-04T09:05:39.567Z,165
2018-11-04T09:06:49.659Z,150
2018-11-04T09:07:59.096Z,140
2018-11-04T09:09:09.109Z,145
2018-11-04T09:10:18.804Z,145
2018-11-04T09:11:28.505Z,150
2018-11-04T09:12:38.469Z,155
2018-11-04T09:13:48.434Z,155
2018-11-04T09:14:58.119Z,155
2018-11-04T09:16:07.800Z,155
2018-11-04T09:17:17.243Z,160
2018-11-04T09:18:26.940Z,160
2018-11-04T09:19:36.669Z,155
2018-11-04T09:20:46.623Z,160
2018-11-04T09:21:57.397Z,155
2018-11-04T09:23:07.528Z,155
2018-11-04T09:24:17.235Z,155
2018-11-04T09:25:27.211Z,155
2018-11-04T09:26:36.909Z,145
2018-11-04T09:27:46.859Z,150
2018-11-04T09:28:56.565Z,150
2018-11-04T09:30:06.016Z,165
2018-11-04T09:31:15.723Z,165
2018-11-04T09:32:25.404Z,160
2018-11-04T09:33:35.090Z,155
2018-11-04T09:34:45.619Z,155
2018-11-04T09:35:56.490Z,170
2018-11-04T09:37:06.703Z,170
2018-11-04T09:38:16.700Z,170
2018-11-04T09:39:26.649Z,170
2018-11-04T09:40:36.351Z,180
2018-11-04T09:41:46.055Z,185
2018-11-04T09:42:55.743Z,175
2018-11-04T09:44:05.448Z,160
2018-11-04T09:45:15.133Z,155
2018-11-04T09:46:24.839Z,170
2018-11-04T09:47:34.577Z,170
2018-11-04T09:48:44.542Z,165
2018-11-04T09:49:54.682Z,160
2018-11-04T09:51:04.698Z,170
2018-11-04T09:52:14.130Z,165
2018-11-04T09:53:24.093Z,160
2018-11-04T09:54:34.092Z,145
2018-11-04T09:55:43.523Z,145
2018-11-04T09:56:53.621Z,145
2018-11-04T09:58:03.068Z,140
2018-11-04T09:59:13.029Z,145
2018-11-04T10:00:22.996Z,145
2018-11-04T10:01:32.703Z,145
2018-11-04T10:02:42.138Z,145
2018-11-04T10:03:51.575Z,145
2018-11-04T10:05:01.287Z,145
2018-11-04T10:06:11.262Z,145
2018-11-04T10:07:21.417Z,140
2018-11-04T10:08:31.102Z,140
2018-11-04T10:09:41.050Z,145
2018-11-04T10:10:50.488Z,145
2018-11-04T10:12:00.444Z,140
2018-11-04T10:13:10.335Z,135
2018-11-04T10:14:20.309Z,145
2018-11-04T10:15:29.751Z,140
2018-11-04T10:16:39.710Z,140
2018-11-04T10:17:49.662Z,145
2018-11-04T10:19:00.627Z,150
2018-11-04T10:20:13.347Z,140
2018-11-04T10:21:22.550Z,140
2018-11-04T10:22:32.249Z,145
2018-11-04T10:23:42.212Z,160
2018-11-04T10:24:52.163Z,170
2018-11-04T10:26:02.124Z,165
2018-11-04T10:27:11.842Z,155
2018-11-04T10:28:21.536Z,155
2018-11-04T10:29:31.505Z,150
2018-11-04T10:30:41.474Z,145
2018-11-04T10:31:50.901Z,145
2018-11-04T10:33:00.849Z,165
2018-11-04T10:34:10.550Z,165
2018-11-04T10:35:20.248Z,160
2018-11-04T10:36:30.444Z,170
2018-11-04T10:37:40.153Z,170
2018-11-04T10:38:49.860Z,170
2018-11-04T10:39:59.301Z,160
2018-11-04T10:41:08.763Z,155
2018-11-04T10:42:19.110Z,155
2018-11-04T10:43:28.884Z,150
2018-11-04T10:44:38.594Z,145
2018-11-04T10:45:48.551Z,160
2018-11-04T10:46:58.010Z,165
2018-11-04T10:48:07.720Z,150
2018-11-04T10:49:17.971Z,145
2018-11-04T10:50:27.368Z,150
2018-11-04T10:51:37.082Z,155
2018-11-04T10:52:46.523Z,155
2018-11-04T10:53:55.969Z,145
2018-11-04T10:55:05.931Z,150
2018-11-04T10:56:15.650Z,145
2018-11-04T10:57:25.087Z,145
2018-11-04T10:58:34.787Z,145
2018-11-04T10:59:44.474Z,145
2018-11-04T11:00:54.179Z,160
2018-11-04T11:02:03.867Z,160
2018-11-04T11:03:13.319Z,150
2018-11-04T11:04:22.818Z,150
2018-11-04T11:05:32.516Z,150
2018-11-04T11:06:42.478Z,145
2018-11-04T11:07:52.183Z,140
2018-11-04T11:09:02.160Z,145
2018-11-04T11:10:11.611Z,135
2018-11-04T11:11:21.577Z,135
2018-11-04T11:12:31.006Z,140
2018-11-04T11:13:40.983Z,145
2018-11-04T11:14:50.717Z,145
2018-11-04T11:16:00.417Z,135
2018-11-04T11:17:10.102Z,140
2018-11-04T11:18:19.537Z,140
2018-11-04T11:19:29.244Z,150
2018-11-04T11:20:38.668Z,165
2018-11-04T11:21:48.377Z,150
2018-11-04T11:22:59.355Z,145
2018-11-04T11:24:08.882Z,150
2018-11-04T11:25:18.599Z,145
2018-11-04T11:26:28.577Z,145
2018-11-04T11:27:37.505Z,155
2018-11-04T11:28:47.214Z,155
2018-11-04T11:29:57.282Z,155
2018-11-04T11:31:06.954Z,170
2018-11-04T11:32:16.646Z,155
2018-11-04T11:33:26.097Z,135
2018-11-04T11:34:36.075Z,130
2018-11-04T11:35:45.508Z,150
2018-11-04T11:36:55.505Z,155
2018-11-04T11:38:05.957Z,160
2018-11-04T11:39:15.550Z,160
2018-11-04T11:40:25.525Z,165
2018-11-04T11:41:35.489Z,165
2018-11-04T11:42:45.192Z,170
2018-11-04T11:43:54.913Z,175
2018-11-04T11:45:05.477Z,180
2018-11-04T11:46:14.863Z,180
2018-11-04T11:47:24.810Z,170
2018-11-04T11:48:34.252Z,170
2018-11-04T11:49:43.944Z,170
2018-11-04T11:50:53.896Z,160
2018-11-04T11:52:03.612Z,150
2018-11-04T11:53:13.575Z,145
2018-11-04T11:54:23.532Z,150
2018-11-04T11:55:33.250Z,145
2018-11-04T11:56:43.209Z,135
2018-11-04T11:57:53.177Z,130
2018-11-04T11:59:02.648Z,135
2018-11-04T12:00:12.351Z,135
2018-11-04T12:01:22.328Z,140
2018-11-04T12:02:32.427Z,140
2018-11-04T12:03:42.404Z,145
2018-11-04T12:04:52.372Z,160
2018-11-04T12:06:02.083Z,155
2018-11-04T12:07:11.298Z,150
2018-11-04T12:08:21.291Z,150
2018-11-04T12:09:31.258Z,150
2018-11-04T12:10:40.969Z,145
2018-11-04T12:11:50.690Z,150
2018-11-04T12:13:00.648Z,150
2018-11-04T12:14:10.616Z,150
2018-11-04T12:15:20.575Z,140
2018-11-04T12:16:30.270Z,130
2018-11-04T12:17:40.274Z,130
2018-11-04T12:18:49.782Z,125
2018-11-04T12:19:59.750Z,135
2018-11-04T12:21:09.711Z,140
2018-11-04T12:22:19.670Z,140
2018-11-04T12:23:29.153Z,135
2018-11-04T12:24:38.846Z,130
2018-11-04T12:25:48.810Z,125
2018-11-04T12:26:58.751Z,120
2018-11-04T12:28:08.256Z,115
2018-11-04T12:29:17.940Z,120
2018-11-04T12:30:27.380Z,115
2018-11-04T12:31:37.497Z,115
2018-11-04T12:32:47.198Z,120
2018-11-04T12:33:57.167Z,120
2018-11-04T12:35:07.177Z,125
2018-11-04T12:36:17.131Z,120
2018-11-04T12:37:27.093Z,125
2018-11-04T12:38:36.536Z,130
2018-11-04T12:39:46.243Z,120
2018-11-04T12:40:56.205Z,120
2018-11-04T12:42:06.220Z,120
2018-11-04T12:43:15.669Z,110
2018-11-04T12:44:25.361Z,110
2018-11-04T12:45:35.168Z,100
2018-11-04T12:46:44.868Z,100
2018-11-04T12:47:54.319Z,105
2018-11-04T12:49:04.276Z,105
2018-11-04T12:50:13.982Z,95
2018-11-04T12:51:23.675Z,85
2018-11-04T12:52:33.564Z,80
2018-11-04T12:53:43.249Z,85
2018-11-04T12:54:52.702Z,80
2018-11-04T12:56:02.409Z,85
2018-11-04T12:57:11.847Z,85
2018-11-04T12:58:21.552Z,75
2018-11-04T12:59:31.005Z,75
2018-11-04T13:00:40.984Z,75
2018-11-04T13:01:50.263Z,80
2018-11-04T13:03:00.023Z,85
2018-11-04T13:04:09.737Z,85
2018-11-04T13:05:19.432Z,80
2018-11-04T13:06:29.125Z,80
2018-11-04T13:07:38.828Z,90
2018-11-04T13:08:48.262Z,85
2018-11-04T13:09:57.761Z,80
2018-11-04T13:11:07.738Z,85
2018-11-04T13:12:17.173Z,80
2018-11-04T13:13:27.138Z,75
2018-11-04T13:14:36.835Z,75
2018-11-04T13:15:46.531Z,75
2018-11-04T13:16:55.955Z,80
2018-11-04T13:18:05.665Z,80
2018-11-04T13:19:15.620Z,90
2018-11-04T13:20:25.073Z,95
2018-11-04T13:21:34.958Z,90
2018-11-04T13:22:44.942Z,80
2018-11-04T13:23:54.920Z,80
2018-11-04T13:25:04.888Z,80
2018-11-04T13:26:14.628Z,80
2018-11-04T13:27:24.091Z,80
2018-11-04T13:28:33.806Z,75
2018-11-04T13:29:43.511Z,75
2018-11-04T13:30:52.955Z,75
2018-11-04T13:32:02.904Z,65
2018-11-04T13:33:12.879Z,60
2018-11-04T13:34:22.593Z,60
2018-11-04T13:35:31.773Z,60
2018-11-04T13:36:41.477Z,60
2018-11-04T13:37:51.428Z,60
2018-11-04T13:39:01.121Z,60
2018-11-04T13:40:11.107Z,65
2018-11-04T13:41:20.290Z,70
2018-11-04T13:42:29.996Z,65
2018-11-04T13:43:39.431Z,65
2018-11-04T13:44:49.147Z,60
2018-11-04T13:45:58.839Z,60
2018-11-04T13:47:08.550Z,55
2018-11-04T13:48:18.238Z,55
2018-11-04T13:49:28.078Z,65
2018-11-04T13:50:37.783Z,65
2018-11-04T13:51:47.468Z,60
2018-11-04T13:52:57.432Z,60
2018-11-04T13:54:07.396Z,55
2018-11-04T13:55:16.838Z,50
2018-11-04T13:56:26.799Z,50
2018-11-04T13:57:35.966Z,45
2018-11-04T13:58:45.658Z,50
2018-11-04T13:59:55.338Z,45
2018-11-04T14:01:05.024Z,45
2018-11-04T14:02:14.967Z,40
2018-11-04T14:03:24.926Z,40
2018-11-04T14:04:34.639Z,40
2018-11-04T14:05:44.338Z,40
2018-11-04T14:06:54.040Z,40
2018-11-04T14:08:03.740Z,35
2018-11-04T14:09:13.188Z,40
2018-11-04T14:10:22.650Z,40
2018-11-04T14:11:32.340Z,40
2018-11-04T14:12:41.950Z,35
2018-11-04T14:13:52.015Z,40
2018-11-04T14:15:01.983Z,40
2018-11-04T14:16:11.930Z,40
2018-11-04T14:17:21.626Z,40
2018-11-04T14:18:31.590Z,45
2018-11-04T14:19:41.296Z,40
2018-11-04T14:20:51.311Z,40
2018-11-04T14:22:01.006Z,35
2018-11-04T14:23:10.697Z,35
2018-11-04T14:24:20.648Z,35
2018-11-04T14:25:30.375Z,35
2018-11-04T14:26:40.081Z,30
2018-11-04T14:27:50.081Z,30
2018-11-04T14:29:00.034Z,30
2018-11-04T14:30:09.752Z,35
2018-11-04T14:31:20.032Z,30
2018-11-04T14:32:29.476Z,25
2018-11-04T14:33:39.439Z,25
2018-11-04T14:34:49.407Z,30
2018-11-04T14:35:59.372Z,25
2018-11-04T14:37:09.091Z,25
2018-11-04T14:38:19.048Z,25
2018-11-04T14:39:28.500Z,25
2018-11-04T14:40:38.463Z,20
2018-11-04T14:41:48.425Z,20
2018-11-04T14:42:58.125Z,20
2018-11-04T14:44:07.829Z,20
2018-11-04T14:45:17.276Z,20
2018-11-04T14:46:26.983Z,15
2018-11-04T14:47:36.450Z,15
2018-11-04T14:48:46.153Z,15
2018-11-04T14:49:55.082Z,15
2018-11-04T14:51:05.047Z,15
2018-11-04T14:52:14.491Z,15
2018-11-04T14:53:24.228Z,15
2018-11-04T14:54:34.182Z,10
2018-11-04T14:55:43.883Z,10
2018-11-04T14:56:53.846Z,10
2018-11-04T14:58:03.812Z,10
2018-11-04T14:59:13.778Z,10
2018-11-04T15:00:23.712Z,10
2018-11-04T15:01:33.512Z,10
2018-11-04T15:02:43.459Z,10
2018-11-04T15:03:53.430Z,10
2018-11-04T15:05:03.130Z,10
2018-11-04T15:06:13.086Z,10
2018-11-04T15:07:23.325Z,5
2018-11-04T15:08:33.357Z,5
2018-11-04T15:09:43.325Z,5
2018-11-04T15:10:53.130Z,5
2018-11-04T15:12:02.827Z,5
2018-11-04T15:13:12.007Z,5
2018-11-04T15:14:21.964Z,5
2018-11-04T15:15:31.966Z,5
2018-11-04T15:16:41.920Z,5
2018-11-04T15:17:51.600Z,5
2018-11-04T15:19:02.360Z,5
2018-11-04T15:20:12.155Z,0
2018-11-04T15:21:21.851Z,0
2018-11-04T15:22:31.792Z,0
2018-11-04T15:23:41.766Z,0
2018-11-04T15:24:51.936Z,0
2018-11-04T15:26:01.639Z,0
2018-11-04T15:27:11.091Z,0
2018-11-04T15:28:21.092Z,0
2018-11-04T15:29:30.554Z,0
2018-11-04T15:30:40.245Z,0
2018-11-04T15:31:49.960Z,0
2018-11-04T15:33:00.051Z,0
2018-11-04T15:34:10.328Z,0
2018-11-04T15:35:20.384Z,0
2018-11-04T15:36:30.075Z,0
2018-11-04T15:37:39.784Z,0
2018-11-04T15:38:49.726Z,0
2018-11-04T15:39:59.364Z,0
2018-11-04T15:41:09.080Z,0
2018-11-04T15:42:18.781Z,0
2018-11-04T15:43:28.526Z,0
2018-11-04T15:44:38.482Z,0
2018-11-04T15:45:47.929Z,0
2018-11-04T15:46:57.609Z,0
2018-11-04T15:48:07.311Z,0
2018-11-04T15:49:17.068Z,0
2018-11-04T15:50:26.795Z,0
2018-11-04T15:51:36.607Z,0
2018-11-04T15:52:46.094Z,0
2018-11-04T15:53:56.068Z,0
2018-11-04T15:55:06.026Z,0
2018-11-04T15:56:15.415Z,0
2018-11-04T15:57:25.861Z,0
2018-11-04T15:58:35.056Z,0
2018-11-04T15:59:45.018Z,0
2018-11-04T16:00:54.459Z,0
2018-11-04T16:02:04.164Z,0
2018-11-04T16:03:14.121Z,0
2018-11-04T16:04:24.241Z,0
2018-11-04T16:05:34.777Z,0
2018-11-04T16:06:44.831Z,0
2018-11-04T16:07:54.805Z,0
2018-11-04T16:09:04.236Z,0
2018-11-04T16:10:14.204Z,0
2018-11-04T16:11:23.903Z,0
2018-11-04T16:12:34.127Z,0
2018-11-04T16:13:43.928Z,0
2018-11-04T16:14:54.385Z,0
2018-11-04T16:16:04.390Z,0
2018-11-04T16:17:13.842Z,0
2018-11-04T16:18:24.670Z,0
2018-11-04T16:19:34.332Z,0
2018-11-04T16:20:44.016Z,0
2018-11-04T16:21:53.713Z,0
2018-11-04T16:23:03.407Z,0
2018-11-04T16:24:13.098Z,0
2018-11-04T16:25:23.038Z,0
2018-11-04T16:26:33.006Z,0
2018-11-04T16:27:42.968Z,0
2018-11-04T16:28:52.953Z,0
2018-11-04T16:30:02.906Z,0
2018-11-04T16:31:12.848Z,0
2018-11-04T16:32:23.056Z,0
2018-11-04T16:33:33.441Z,0
2018-11-04T16:34:43.148Z,0
2018-11-04T16:35:52.828Z,0
2018-11-04T16:37:02.789Z,0
2018-11-04T16:38:12.239Z,0
2018-11-04T16:39:21.682Z,0
2018-11-04T16:40:31.138Z,0
2018-11-04T16:41:40.584Z,0